Time;durP1;ratioP1;P1;durP2;ratioP2;P2;SDS_P1;SDS_P2;PMS_P1;PMS_P2;Temp;Humidity;BMP_temperature;BMP_pressure;BME280_temperature;BME280_humidity;BME280_pressure;Samples;Min_cycle;Max_cycle;Signal;HPM_P1;HPM_P2
2022/04/09 00:00:23;;;;;;;8.85;2.30;;;5.80;74.30;;;;;;5102382;28;20017;-70
2022/04/09 00:02:49;;;;;;;7.25;2.17;;;5.80;74.40;;;;;;5098349;28;20027;-67
2022/04/09 00:05:15;;;;;;;7.55;2.13;;;5.80;74.40;;;;;;5093516;28;20069;-71
2022/04/09 00:07:41;;;;;;;7.20;2.13;;;5.80;74.40;;;;;;5082366;28;20035;-70
2022/04/09 00:10:09;;;;;;;8.55;2.30;;;5.80;74.50;;;;;;5098973;28;20033;-70
2022/04/09 00:12:34;;;;;;;8.20;2.00;;;5.80;74.60;;;;;;5087768;28;20470;-70
2022/04/09 00:15:00;;;;;;;7.25;2.17;;;5.80;74.50;;;;;;5088867;28;20023;-70
2022/04/09 00:17:26;;;;;;;9.57;2.67;;;5.80;74.50;;;;;;5084747;28;20087;-68
2022/04/09 00:19:52;;;;;;;8.60;2.00;;;5.80;74.40;;;;;;5082955;28;20486;-70
2022/04/09 00:22:18;;;;;;;7.80;2.13;;;5.80;75.00;;;;;;5087458;28;20024;-69
2022/04/09 00:24:43;;;;;;;4.57;1.50;;;5.90;74.40;;;;;;5080200;28;20032;-68
2022/04/09 00:27:09;;;;;;;9.40;2.25;;;5.80;74.30;;;;;;5082295;28;20031;-69
2022/04/09 00:29:35;;;;;;;7.88;2.03;;;5.80;74.40;;;;;;5085694;28;20024;-69
2022/04/09 00:32:00;;;;;;;12.20;2.20;;;5.80;74.40;;;;;;5092856;28;20109;-69
2022/04/09 00:34:26;;;;;;;5.47;1.90;;;5.80;74.50;;;;;;5085925;28;20043;-70
2022/04/09 00:36:52;;;;;;;8.27;2.10;;;5.80;74.50;;;;;;5087782;28;20024;-69
2022/04/09 00:39:18;;;;;;;6.93;2.00;;;5.80;74.50;;;;;;5095897;28;20394;-70
2022/04/09 00:41:47;;;;;;;10.00;2.00;;;5.80;74.50;;;;;;5080314;28;20044;-70
2022/04/09 00:44:20;;;;;;;11.15;2.55;;;5.90;74.60;;;;;;5082510;28;20016;-68
2022/04/09 00:46:47;;;;;;;10.82;1.80;;;5.90;74.50;;;;;;5096596;28;20026;-70
2022/04/09 00:49:13;;;;;;;11.55;2.50;;;5.90;74.50;;;;;;5097315;27;20030;-69
2022/04/09 00:51:40;;;;;;;6.50;2.10;;;5.90;74.50;;;;;;5091539;28;20028;-68
2022/04/09 00:54:07;;;;;;;11.35;2.38;;;5.80;74.70;;;;;;5098963;28;20051;-69
2022/04/09 00:56:35;;;;;;;8.98;1.90;;;5.80;74.80;;;;;;5087202;28;20035;-69
2022/04/09 00:59:02;;;;;;;8.90;2.15;;;5.80;74.90;;;;;;5089385;28;20266;-68
2022/04/09 01:01:32;;;;;;;8.18;1.88;;;5.80;74.90;;;;;;5087090;28;20078;-69
2022/04/09 01:03:59;;;;;;;7.47;2.08;;;5.80;74.90;;;;;;5086194;28;20024;-67
2022/04/09 01:06:25;;;;;;;7.45;1.73;;;5.80;74.90;;;;;;5085048;28;20016;-69
2022/04/09 01:08:51;;;;;;;6.75;1.70;;;5.70;74.90;;;;;;5089479;28;20024;-70
2022/04/09 01:11:16;;;;;;;5.82;1.95;;;5.70;75.00;;;;;;5085027;28;20020;-70
2022/04/09 01:13:44;;;;;;;7.50;2.00;;;5.70;75.10;;;;;;5072660;28;20035;-69
2022/04/09 01:16:10;;;;;;;8.65;2.00;;;5.60;75.20;;;;;;5082590;28;20020;-70
2022/04/09 01:18:36;;;;;;;6.90;1.98;;;5.60;75.20;;;;;;5089963;28;20051;-69
2022/04/09 01:21:04;;;;;;;7.63;1.77;;;5.60;75.30;;;;;;5103177;28;20039;-69
2022/04/09 01:23:30;;;;;;;9.60;2.45;;;5.60;75.30;;;;;;5097786;28;20047;-68
2022/04/09 01:25:58;;;;;;;5.15;1.83;;;5.60;75.30;;;;;;5100035;28;20028;-68
2022/04/09 01:28:25;;;;;;;7.47;1.90;;;5.60;75.40;;;;;;5091880;28;20051;-69
2022/04/09 01:30:51;;;;;;;5.40;1.70;;;5.60;75.40;;;;;;5089537;28;20099;-69
2022/04/09 01:33:17;;;;;;;6.03;2.03;;;5.60;75.40;;;;;;5084321;28;20546;-68
2022/04/09 01:35:44;;;;;;;7.25;1.95;;;5.60;75.40;;;;;;5083549;28;20043;-69
2022/04/09 01:38:10;;;;;;;6.22;2.00;;;5.60;75.30;;;;;;5086866;28;20035;-69
2022/04/09 01:40:35;;;;;;;6.30;1.95;;;5.60;75.30;;;;;;5084460;28;20024;-70
2022/04/09 01:43:01;;;;;;;5.97;1.80;;;5.60;75.20;;;;;;5097271;28;20024;-69
2022/04/09 01:45:29;;;;;;;5.63;2.00;;;5.60;75.20;;;;;;5091268;28;20494;-69
2022/04/09 01:47:55;;;;;;;5.97;1.83;;;5.60;75.20;;;;;;5078718;28;20028;-70
2022/04/09 01:50:21;;;;;;;4.05;1.60;;;5.50;75.20;;;;;;5087013;28;20390;-70
2022/04/09 01:52:47;;;;;;;7.15;1.90;;;5.50;75.20;;;;;;5091313;28;20031;-67
2022/04/09 01:55:13;;;;;;;6.25;1.83;;;5.50;75.20;;;;;;5084127;28;20028;-69
2022/04/09 01:57:39;;;;;;;8.02;1.70;;;5.50;75.30;;;;;;5081541;28;20036;-70
2022/04/09 02:00:07;;;;;;;8.38;2.20;;;5.50;75.20;;;;;;5088255;28;20025;-70
2022/04/09 02:02:32;;;;;;;7.28;1.70;;;5.50;75.30;;;;;;5077459;28;20103;-70
2022/04/09 02:04:58;;;;;;;5.82;1.77;;;5.50;75.30;;;;;;5081486;28;20096;-69
2022/04/09 02:07:24;;;;;;;9.82;2.58;;;5.50;75.20;;;;;;5096027;28;20385;-69
2022/04/09 02:09:49;;;;;;;7.32;2.10;;;5.40;75.10;;;;;;5092484;28;20031;-69
2022/04/09 02:12:15;;;;;;;7.55;2.10;;;5.50;75.20;;;;;;5099619;28;20028;-71
2022/04/09 02:14:41;;;;;;;10.13;2.05;;;5.50;75.30;;;;;;5088932;28;20024;-70
2022/04/09 02:17:06;;;;;;;6.15;1.73;;;5.40;75.20;;;;;;5081612;28;20027;-69
2022/04/09 02:19:32;;;;;;;11.13;2.67;;;5.40;75.20;;;;;;5085315;28;20037;-70
2022/04/09 02:21:58;;;;;;;6.80;1.83;;;5.50;75.30;;;;;;5084504;28;20028;-70
2022/04/09 02:24:23;;;;;;;4.32;1.55;;;5.50;75.30;;;;;;5079890;28;20078;-70
2022/04/09 02:26:48;;;;;;;8.38;1.98;;;5.50;75.30;;;;;;5089228;28;20094;-69
2022/04/09 02:29:14;;;;;;;8.07;1.70;;;5.40;75.20;;;;;;5088015;28;20012;-70
2022/04/09 02:31:40;;;;;;;5.13;1.70;;;5.50;75.40;;;;;;5084099;28;20367;-71
2022/04/09 02:34:05;;;;;;;7.82;1.95;;;5.50;75.40;;;;;;5085082;28;20475;-70
2022/04/09 02:36:32;;;;;;;5.97;2.20;;;5.50;75.40;;;;;;5088748;28;20457;-71
2022/04/09 02:38:57;;;;;;;5.90;1.60;;;5.50;75.50;;;;;;5091497;28;20012;-71
2022/04/09 02:41:23;;;;;;;8.93;2.00;;;5.50;75.60;;;;;;5086678;28;20653;-70
2022/04/09 02:43:48;;;;;;;7.90;1.80;;;5.40;75.60;;;;;;5082985;28;20154;-70
2022/04/09 02:46:15;;;;;;;8.45;1.90;;;5.40;75.70;;;;;;5083902;28;20509;-70
2022/04/09 02:48:41;;;;;;;4.60;1.60;;;5.50;75.80;;;;;;5085904;28;20047;-70
2022/04/09 02:51:06;;;;;;;5.95;1.55;;;5.40;75.70;;;;;;5075820;28;20032;-70
2022/04/09 02:53:32;;;;;;;7.38;1.45;;;5.40;75.70;;;;;;5077780;28;20035;-70
2022/04/09 02:55:57;;;;;;;4.57;1.75;;;5.50;75.70;;;;;;5085927;28;20028;-70
2022/04/09 02:58:23;;;;;;;8.00;1.90;;;5.50;75.70;;;;;;5080385;28;20024;-71
2022/04/09 03:00:48;;;;;;;5.15;1.38;;;5.40;75.70;;;;;;5083122;28;20478;-69
2022/04/09 03:03:14;;;;;;;4.80;1.50;;;5.50;75.80;;;;;;5079055;28;20058;-70
2022/04/09 03:05:40;;;;;;;5.85;1.70;;;5.50;75.80;;;;;;5086834;28;20107;-72
2022/04/09 03:08:05;;;;;;;4.28;1.50;;;5.50;75.70;;;;;;5086506;28;20051;-71
2022/04/09 03:10:31;;;;;;;4.38;1.42;;;5.50;75.70;;;;;;5084637;28;20064;-70
2022/04/09 03:12:58;;;;;;;4.22;1.70;;;5.50;75.60;;;;;;5086894;28;20021;-70
2022/04/09 03:15:23;;;;;;;4.60;1.52;;;5.50;75.70;;;;;;5089313;28;20028;-69
2022/04/09 03:17:49;;;;;;;3.70;1.55;;;5.50;75.70;;;;;;5077232;28;20025;-71
2022/04/09 03:20:14;;;;;;;5.22;1.40;;;5.40;75.80;;;;;;5084034;28;20332;-72
2022/04/09 03:22:44;;;;;;;3.40;1.20;;;5.50;75.90;;;;;;5079081;28;21280;-71
2022/04/09 03:25:11;;;;;;;7.50;1.60;;;5.50;75.90;;;;;;5083024;28;20081;-71
2022/04/09 03:27:37;;;;;;;4.57;1.55;;;5.50;75.90;;;;;;5073204;28;20032;-71
2022/04/09 03:30:02;;;;;;;5.00;1.50;;;5.40;75.80;;;;;;5083785;28;20048;-71
2022/04/09 03:32:28;;;;;;;3.30;1.38;;;5.50;75.90;;;;;;5087868;28;20024;-72
2022/04/09 03:34:53;;;;;;;6.68;1.67;;;5.40;75.80;;;;;;5086491;28;20124;-72
2022/04/09 03:37:19;;;;;;;7.05;2.03;;;5.40;75.90;;;;;;5080602;28;20028;-72
2022/04/09 03:39:45;;;;;;;4.65;1.60;;;5.40;76.10;;;;;;5080185;28;20032;-72
2022/04/09 03:42:10;;;;;;;5.10;1.45;;;5.40;76.10;;;;;;5096214;28;20028;-69
2022/04/09 03:44:36;;;;;;;4.60;1.38;;;5.40;76.10;;;;;;5084678;28;20027;-72
2022/04/09 03:47:03;;;;;;;2.83;1.33;;;5.40;76.00;;;;;;5090587;28;20036;-71
2022/04/09 03:49:30;;;;;;;4.10;1.35;;;5.50;76.00;;;;;;5091339;27;20386;-70
2022/04/09 03:51:56;;;;;;;7.82;1.45;;;5.50;75.90;;;;;;5086039;28;20024;-71
2022/04/09 03:54:21;;;;;;;4.30;1.67;;;5.50;76.00;;;;;;5086804;28;20020;-72
2022/04/09 03:56:47;;;;;;;4.10;1.65;;;5.50;76.00;;;;;;5078756;28;20039;-71
2022/04/09 03:59:12;;;;;;;6.32;1.77;;;5.50;76.10;;;;;;5091244;28;20123;-71
2022/04/09 04:01:38;;;;;;;5.65;1.83;;;5.50;76.10;;;;;;5082777;28;20028;-70
2022/04/09 04:04:03;;;;;;;5.75;1.40;;;5.50;76.20;;;;;;5083789;28;20036;-68
2022/04/09 04:06:29;;;;;;;6.60;1.63;;;5.50;76.10;;;;;;5080346;28;20102;-69
2022/04/09 04:08:58;;;;;;;6.15;1.58;;;5.50;76.10;;;;;;5086373;28;20020;-70
2022/04/09 04:11:24;;;;;;;3.30;1.30;;;5.50;76.10;;;;;;5088577;28;20031;-69
2022/04/09 04:13:50;;;;;;;7.97;1.52;;;5.50;76.10;;;;;;5086062;28;20033;-69
2022/04/09 04:16:16;;;;;;;6.15;1.55;;;5.50;76.10;;;;;;5086388;28;20534;-69
2022/04/09 04:18:42;;;;;;;7.43;1.98;;;5.50;76.10;;;;;;5084272;28;20028;-70
2022/04/09 04:21:08;;;;;;;5.35;1.60;;;5.50;76.20;;;;;;5096509;28;20032;-69
2022/04/09 04:23:34;;;;;;;4.13;1.50;;;5.40;76.20;;;;;;5096953;28;20028;-68
2022/04/09 04:26:00;;;;;;;5.88;1.55;;;5.50;76.10;;;;;;5085470;28;20024;-68
2022/04/09 04:28:25;;;;;;;4.53;1.58;;;5.50;76.10;;;;;;5081658;28;20108;-70
2022/04/09 04:30:51;;;;;;;4.13;1.50;;;5.60;76.20;;;;;;5078870;28;20050;-69
2022/04/09 04:33:16;;;;;;;8.35;1.75;;;5.60;76.10;;;;;;5088611;28;20465;-70
2022/04/09 04:35:42;;;;;;;4.65;1.48;;;5.60;76.20;;;;;;5097444;28;20020;-67
2022/04/09 04:38:08;;;;;;;5.55;1.60;;;5.50;76.10;;;;;;5095190;28;20119;-69
2022/04/09 04:40:33;;;;;;;5.18;1.50;;;5.50;76.10;;;;;;5088093;28;20040;-70
2022/04/09 04:42:59;;;;;;;5.75;1.60;;;5.50;76.10;;;;;;5081024;28;20029;-68
2022/04/09 04:45:24;;;;;;;5.00;1.50;;;5.50;76.20;;;;;;5088955;28;20027;-70
2022/04/09 04:47:50;;;;;;;4.85;1.50;;;5.50;76.20;;;;;;5094333;28;20016;-70
2022/04/09 04:50:17;;;;;;;5.78;1.40;;;5.50;76.30;;;;;;5082736;28;20436;-69
2022/04/09 04:52:43;;;;;;;6.32;1.50;;;5.50;76.30;;;;;;5088554;28;20500;-69
2022/04/09 04:55:09;;;;;;;6.47;1.80;;;5.50;76.40;;;;;;5085807;28;20099;-69
2022/04/09 04:57:46;;;;;;;4.68;1.58;;;5.40;76.50;;;;;;5086748;28;20055;-69
2022/04/09 05:00:15;;;;;;;5.07;1.70;;;5.40;76.60;;;;;;5086540;28;20383;-69
2022/04/09 05:02:40;;;;;;;7.05;1.73;;;5.40;76.70;;;;;;5083301;28;20028;-69
2022/04/09 05:05:06;;;;;;;5.25;1.58;;;5.40;76.70;;;;;;5084034;28;20356;-69
2022/04/09 05:07:42;;;;;;;6.80;1.63;;;5.40;76.60;;;;;;5083188;28;20032;-69
2022/04/09 05:10:10;;;;;;;7.30;1.70;;;5.50;76.70;;;;;;5087784;28;20036;-70
2022/04/09 05:12:36;;;;;;;4.57;1.50;;;5.50;76.50;;;;;;5093464;28;20032;-69
2022/04/09 05:15:06;;;;;;;3.08;1.30;;;5.50;76.40;;;;;;5096182;28;20035;-70
2022/04/09 05:17:31;;;;;;;4.32;1.30;;;5.50;76.30;;;;;;5106566;28;20024;-69
2022/04/09 05:19:57;;;;;;;5.40;1.33;;;5.60;76.20;;;;;;5102077;28;20027;-67
2022/04/09 05:22:22;;;;;;;4.30;1.42;;;5.60;76.10;;;;;;5098983;28;20372;-68
2022/04/09 05:24:49;;;;;;;4.25;1.35;;;5.60;76.00;;;;;;5101008;28;20032;-69
2022/04/09 05:27:15;;;;;;;6.35;1.73;;;5.70;75.90;;;;;;5109862;28;20361;-69
2022/04/09 05:29:40;;;;;;;4.28;1.55;;;5.80;75.90;;;;;;5092726;28;20032;-69
2022/04/09 05:32:06;;;;;;;4.63;1.30;;;6.20;75.90;;;;;;5105013;28;20053;-69
2022/04/09 05:34:32;;;;;;;5.32;1.38;;;6.90;74.80;;;;;;5099936;28;20031;-69
2022/04/09 05:36:57;;;;;;;4.20;1.30;;;7.10;73.00;;;;;;5108677;28;20028;-69
2022/04/09 05:39:23;;;;;;;6.53;1.35;;;7.10;72.20;;;;;;5093106;28;20044;-70
2022/04/09 05:41:49;;;;;;;4.35;1.13;;;6.90;72.30;;;;;;5103113;28;20080;-69
2022/04/09 05:44:14;;;;;;;3.88;1.30;;;6.80;72.60;;;;;;5107345;28;20114;-69
2022/04/09 05:46:39;;;;;;;3.90;1.20;;;6.70;72.90;;;;;;5109916;28;20031;-69
2022/04/09 05:49:05;;;;;;;5.43;1.40;;;6.60;73.20;;;;;;5095126;28;20026;-69
2022/04/09 05:51:31;;;;;;;5.70;1.45;;;6.60;73.50;;;;;;5099993;28;20020;-69
2022/04/09 05:53:56;;;;;;;5.57;1.60;;;6.60;73.60;;;;;;5111452;28;20024;-69
2022/04/09 05:56:23;;;;;;;4.57;1.33;;;6.90;73.30;;;;;;5106344;28;20555;-69
2022/04/09 05:58:48;;;;;;;4.35;1.65;;;7.40;72.70;;;;;;5093319;28;20650;-69
2022/04/09 06:01:14;;;;;;;2.72;1.10;;;8.00;71.50;;;;;;5103881;28;20102;-68
2022/04/09 06:03:39;;;;;;;3.78;1.20;;;9.20;69.70;;;;;;5111701;28;20038;-68
2022/04/09 06:06:05;;;;;;;6.80;1.40;;;10.40;66.70;;;;;;5108465;28;20024;-68
2022/04/09 06:08:33;;;;;;;5.38;1.40;;;11.60;63.70;;;;;;5096947;28;20449;-69
2022/04/09 06:10:59;;;;;;;3.85;1.27;;;12.70;60.90;;;;;;5100789;28;20466;-68
2022/04/09 06:13:25;;;;;;;3.08;1.33;;;13.50;59.00;;;;;;5106705;28;20035;-68
2022/04/09 06:15:50;;;;;;;3.40;1.30;;;14.10;57.00;;;;;;5101230;28;20046;-68
2022/04/09 06:18:16;;;;;;;4.07;1.38;;;14.80;55.30;;;;;;5098814;28;20028;-68
2022/04/09 06:20:42;;;;;;;5.03;1.45;;;15.00;54.10;;;;;;5099074;28;20024;-68
2022/04/09 06:23:08;;;;;;;4.53;1.38;;;14.40;53.70;;;;;;5106982;28;20024;-68
2022/04/09 06:25:34;;;;;;;4.68;1.70;;;13.00;54.80;;;;;;5092049;28;20032;-68
2022/04/09 06:28:00;;;;;;;4.82;1.33;;;11.90;57.00;;;;;;5098211;28;20025;-68
2022/04/09 06:30:26;;;;;;;3.97;1.42;;;12.30;58.10;;;;;;5100610;28;20118;-68
2022/04/09 06:32:53;;;;;;;3.97;1.23;;;13.50;56.70;;;;;;5108161;28;20034;-68
2022/04/09 06:35:18;;;;;;;3.25;1.30;;;14.70;54.20;;;;;;5092682;28;20441;-68
2022/04/09 06:37:44;;;;;;;4.10;1.23;;;15.60;52.20;;;;;;5098825;28;20027;-68
2022/04/09 06:40:10;;;;;;;2.95;1.00;;;16.30;50.20;;;;;;5101804;28;20031;-68
2022/04/09 06:42:36;;;;;;;2.33;1.10;;;16.60;49.30;;;;;;5107894;28;20019;-68
2022/04/09 06:45:02;;;;;;;2.33;1.25;;;16.90;47.50;;;;;;5094575;28;20031;-68
2022/04/09 06:47:28;;;;;;;1.52;0.77;;;16.70;47.20;;;;;;5093379;28;20026;-69
2022/04/09 06:49:54;;;;;;;3.50;1.10;;;15.40;48.10;;;;;;5096576;28;20425;-69
2022/04/09 06:52:19;;;;;;;4.80;1.10;;;15.00;50.30;;;;;;5107462;28;20409;-68
2022/04/09 06:54:45;;;;;;;2.58;0.90;;;15.90;49.60;;;;;;5083412;28;20028;-69
2022/04/09 06:57:10;;;;;;;3.40;1.38;;;16.90;47.90;;;;;;5099163;28;20496;-69
2022/04/09 06:59:36;;;;;;;2.65;1.10;;;17.60;46.50;;;;;;5103408;28;20031;-69
2022/04/09 07:02:01;;;;;;;13.25;1.58;;;18.00;45.60;;;;;;5108215;28;20035;-68
2022/04/09 07:04:27;;;;;;;3.35;1.20;;;18.30;44.60;;;;;;5097134;28;20019;-68
2022/04/09 07:06:52;;;;;;;4.65;1.30;;;18.50;43.80;;;;;;5096871;28;20423;-68
2022/04/09 07:09:18;;;;;;;4.53;1.40;;;18.30;43.70;;;;;;5103615;28;20148;-68
2022/04/09 07:11:44;;;;;;;4.65;1.13;;;18.70;43.40;;;;;;5108810;28;20039;-68
2022/04/09 07:14:10;;;;;;;3.90;1.30;;;19.00;43.20;;;;;;5100138;28;20028;-68
2022/04/09 07:16:35;;;;;;;3.85;1.23;;;19.10;42.90;;;;;;5092149;28;20031;-68
2022/04/09 07:19:01;;;;;;;3.70;1.35;;;19.20;42.40;;;;;;5095422;28;20399;-68
2022/04/09 07:21:27;;;;;;;3.60;1.33;;;19.60;41.70;;;;;;5090393;28;20020;-68
2022/04/09 07:23:53;;;;;;;3.33;1.20;;;19.60;41.60;;;;;;5091011;28;20052;-69
2022/04/09 07:26:20;;;;;;;3.97;1.30;;;19.40;41.30;;;;;;5091477;28;20059;-69
2022/04/09 07:28:46;;;;;;;4.97;1.40;;;19.00;41.30;;;;;;5104779;28;20469;-68
2022/04/09 07:31:12;;;;;;;5.28;1.48;;;18.60;42.40;;;;;;5084218;28;20037;-68
2022/04/09 07:33:37;;;;;;;4.05;1.33;;;18.20;42.70;;;;;;5099043;28;20088;-68
2022/04/09 07:36:04;;;;;;;6.40;1.73;;;17.00;43.70;;;;;;5097556;28;20194;-69
2022/04/09 07:38:29;;;;;;;4.72;1.45;;;15.80;45.40;;;;;;5100800;28;20220;-68
2022/04/09 07:40:55;;;;;;;5.65;1.52;;;14.40;48.40;;;;;;5093108;28;20111;-68
2022/04/09 07:43:21;;;;;;;6.75;1.77;;;15.60;48.50;;;;;;5094569;28;20478;-68
2022/04/09 07:45:46;;;;;;;3.40;1.25;;;15.50;47.50;;;;;;5101242;28;20371;-68
2022/04/09 07:48:12;;;;;;;3.08;1.10;;;16.00;47.10;;;;;;5098053;28;20031;-68
2022/04/09 07:50:38;;;;;;;2.38;0.90;;;16.40;45.90;;;;;;5093894;28;20032;-68
2022/04/09 07:53:03;;;;;;;1.75;0.80;;;14.90;46.50;;;;;;5096872;28;20055;-69
2022/04/09 07:55:29;;;;;;;1.17;0.80;;;13.70;48.80;;;;;;5103743;28;20027;-68
2022/04/09 07:57:54;;;;;;;2.22;1.00;;;13.30;50.60;;;;;;5100189;28;20031;-69
2022/04/09 08:00:22;;;;;;;1.38;0.80;;;13.20;50.50;;;;;;5096610;28;20039;-68
2022/04/09 08:02:48;;;;;;;3.47;0.90;;;14.30;50.70;;;;;;5095192;28;20062;-68
2022/04/09 08:05:15;;;;;;;2.63;1.00;;;15.90;47.70;;;;;;5105763;28;20082;-68
2022/04/09 08:07:41;;;;;;;2.22;0.95;;;16.90;45.40;;;;;;5092301;28;20409;-68
2022/04/09 08:10:08;;;;;;;2.70;0.70;;;17.70;43.90;;;;;;5096298;28;20498;-68
2022/04/09 08:12:34;;;;;;;3.08;1.05;;;18.20;42.90;;;;;;5101947;28;20420;-69
2022/04/09 08:15:00;;;;;;;3.97;1.30;;;18.80;42.40;;;;;;5110693;28;20153;-69
2022/04/09 08:17:25;;;;;;;4.00;1.30;;;19.00;40.90;;;;;;5088581;28;20106;-68
2022/04/09 08:19:51;;;;;;;2.22;1.00;;;17.90;41.60;;;;;;5092966;28;20035;-68
2022/04/09 08:22:17;;;;;;;2.70;0.95;;;18.00;42.40;;;;;;5098231;28;20526;-69
2022/04/09 08:24:44;;;;;;;2.70;1.13;;;18.50;41.90;;;;;;5107598;28;20528;-68
2022/04/09 08:27:10;;;;;;;2.85;1.00;;;18.70;41.10;;;;;;5093838;28;20377;-69
2022/04/09 08:29:36;;;;;;;2.08;0.95;;;19.10;40.80;;;;;;5089268;28;20154;-69
2022/04/09 08:32:04;;;;;;;4.70;1.00;;;18.80;40.30;;;;;;5100537;28;20024;-69
2022/04/09 08:34:33;;;;;;;3.22;1.10;;;18.30;40.60;;;;;;5105165;28;20492;-69
2022/04/09 08:36:59;;;;;;;2.85;1.30;;;17.70;40.70;;;;;;5077098;28;20426;-69
2022/04/09 08:39:24;;;;;;;5.53;1.33;;;16.90;41.80;;;;;;5096225;28;20012;-69
2022/04/09 08:41:53;;;;;;;3.78;1.17;;;16.10;43.30;;;;;;5102801;28;20420;-69
2022/04/09 08:44:19;;;;;;;2.00;1.00;;;15.50;44.30;;;;;;5103188;28;20024;-69
2022/04/09 08:46:46;;;;;;;2.55;0.80;;;14.20;46.90;;;;;;5092773;28;20026;-69
2022/04/09 08:49:12;;;;;;;2.75;0.93;;;12.80;49.50;;;;;;5096950;28;20106;-69
2022/04/09 08:51:39;;;;;;;3.60;1.00;;;11.80;52.50;;;;;;5106809;28;20439;-70
2022/04/09 08:54:04;;;;;;;2.80;0.90;;;11.20;54.50;;;;;;5106150;28;20024;-69
2022/04/09 08:56:35;;;;;;;2.60;0.93;;;10.80;55.80;;;;;;5096576;28;20505;-70
2022/04/09 08:59:01;;;;;;;4.60;1.20;;;10.50;56.80;;;;;;5093821;28;20532;-67
2022/04/09 09:01:27;;;;;;;5.53;1.40;;;10.30;57.60;;;;;;5100181;28;20525;-68
2022/04/09 09:03:53;;;;;;;3.03;1.10;;;10.10;58.10;;;;;;5102154;28;20043;-68
2022/04/09 09:06:28;;;;;;;3.58;1.00;;;10.10;58.40;;;;;;5096611;28;20048;-69
2022/04/09 09:08:58;;;;;;;7.45;1.58;;;10.30;58.70;;;;;;5096727;28;20032;-68
2022/04/09 09:11:24;;;;;;;5.10;1.33;;;10.30;58.70;;;;;;5088472;28;20028;-68
2022/04/09 09:13:51;;;;;;;3.35;1.05;;;10.30;58.80;;;;;;5115040;28;20042;-68
2022/04/09 09:16:28;;;;;;;3.47;1.20;;;10.40;58.90;;;;;;5098833;28;20031;-68
2022/04/09 09:18:59;;;;;;;3.47;1.10;;;10.40;58.70;;;;;;5098376;28;20114;-69
2022/04/09 09:21:28;;;;;;;3.55;1.23;;;10.40;58.60;;;;;;5101393;28;20389;-68
2022/04/09 09:24:16;;;;;;;5.82;1.52;;;10.60;58.30;;;;;;5109310;28;20028;-68
2022/04/09 09:26:41;;;;;;;5.40;1.55;;;10.60;57.60;;;;;;5093974;28;20103;-68
2022/04/09 09:29:08;;;;;;;4.03;1.48;;;10.70;57.50;;;;;;5078340;28;20098;-68
2022/04/09 09:31:44;;;;;;;3.53;1.63;;;10.70;57.40;;;;;;5098960;28;20042;-68
2022/04/09 09:34:15;;;;;;;5.00;1.42;;;10.80;57.20;;;;;;5108669;28;20035;-68
2022/04/09 09:36:43;;;;;;;6.10;1.50;;;10.80;56.90;;;;;;5085915;28;20028;-70
2022/04/09 09:39:10;;;;;;;5.00;1.45;;;10.80;56.90;;;;;;5075728;28;20024;-70
2022/04/09 09:41:52;;;;;;;3.22;1.13;;;10.90;57.10;;;;;;5084316;28;20055;-69
2022/04/09 09:44:20;;;;;;;3.88;1.20;;;10.90;56.70;;;;;;5090982;28;20548;-68
2022/04/09 09:46:49;;;;;;;4.20;1.30;;;10.90;56.20;;;;;;5095036;28;20051;-69
2022/04/09 09:49:16;;;;;;;3.95;1.30;;;10.80;56.50;;;;;;5081354;28;20028;-69
2022/04/09 09:51:42;;;;;;;4.53;1.50;;;10.80;56.80;;;;;;5086719;28;20021;-69
2022/04/09 09:54:13;;;;;;;3.97;1.40;;;10.60;57.20;;;;;;5081481;28;20047;-68
2022/04/09 09:56:42;;;;;;;3.35;1.20;;;10.30;57.90;;;;;;5086853;28;20043;-69
2022/04/09 09:59:10;;;;;;;2.17;0.90;;;10.00;59.70;;;;;;5089216;28;20023;-69
2022/04/09 10:01:43;;;;;;;5.22;1.30;;;9.50;60.90;;;;;;5082761;28;20029;-68
2022/04/09 10:04:11;;;;;;;3.20;1.05;;;9.10;62.70;;;;;;5086320;28;20031;-68
2022/04/09 10:06:38;;;;;;;3.70;1.50;;;8.70;64.20;;;;;;5093250;28;20099;-69
2022/04/09 10:09:05;;;;;;;2.63;0.85;;;8.40;65.30;;;;;;5087320;28;20024;-68
2022/04/09 10:11:35;;;;;;;3.00;1.00;;;8.20;66.90;;;;;;5086761;28;20043;-69
2022/04/09 10:14:02;;;;;;;2.10;0.90;;;8.00;67.60;;;;;;5086076;28;20475;-70
2022/04/09 10:16:30;;;;;;;2.80;0.90;;;7.80;67.60;;;;;;5085038;28;20048;-70
2022/04/09 10:18:59;;;;;;;2.60;0.80;;;7.70;67.90;;;;;;5085992;28;20032;-70
2022/04/09 10:21:27;;;;;;;1.90;0.90;;;7.70;68.40;;;;;;5083192;28;20114;-69
2022/04/09 10:23:55;;;;;;;2.17;0.80;;;7.60;68.40;;;;;;5082444;28;20012;-69
2022/04/09 10:26:21;;;;;;;3.47;1.10;;;7.60;68.50;;;;;;5083733;28;20023;-69
2022/04/09 10:28:50;;;;;;;2.70;1.10;;;7.60;69.10;;;;;;5086895;28;20059;-68
2022/04/09 10:31:28;;;;;;;1.92;1.00;;;7.60;69.00;;;;;;5085664;28;20111;-69
2022/04/09 10:33:57;;;;;;;2.65;1.05;;;7.60;69.40;;;;;;5098498;28;20055;-77
2022/04/09 10:36:51;;;;;;;3.22;1.20;;;7.80;69.60;;;;;;5085980;28;20035;-75
2022/04/09 10:39:36;;;;;;;2.22;0.80;;;8.00;69.50;;;;;;5073229;28;20032;-70
2022/04/09 10:42:02;;;;;;;2.65;1.00;;;8.10;69.40;;;;;;5090911;28;20102;-68
2022/04/09 10:44:43;;;;;;;3.08;1.25;;;8.20;69.60;;;;;;5085951;28;20099;-68
2022/04/09 10:47:11;;;;;;;2.58;0.90;;;8.30;69.90;;;;;;5089835;28;20559;-70
2022/04/09 10:49:37;;;;;;;2.42;1.00;;;8.50;70.00;;;;;;5089717;28;20389;-68
2022/04/09 10:52:23;;;;;;;3.13;0.90;;;8.60;69.90;;;;;;5090436;28;20122;-68
2022/04/09 10:55:09;;;;;;;2.53;1.00;;;8.70;69.50;;;;;;5091707;28;20496;-68
2022/04/09 10:57:44;;;;;;;1.33;0.90;;;8.70;68.90;;;;;;5089823;28;20039;-67
2022/04/09 11:00:22;;;;;;;1.92;0.98;;;8.60;68.60;;;;;;5077602;28;20020;-67
2022/04/09 11:03:15;;;;;;;1.90;1.00;;;8.70;68.60;;;;;;5089221;28;20028;-69
2022/04/09 11:05:42;;;;;;;4.97;1.35;;;8.80;68.30;;;;;;5091340;28;20047;-68
2022/04/09 11:08:10;;;;;;;2.13;1.02;;;8.90;68.30;;;;;;5089910;28;20012;-68
2022/04/09 11:10:36;;;;;;;2.53;0.90;;;9.10;68.20;;;;;;5095378;28;20131;-68
2022/04/09 11:13:03;;;;;;;3.25;1.10;;;9.10;68.10;;;;;;5103315;28;20537;-68
2022/04/09 11:15:29;;;;;;;3.83;1.10;;;9.20;68.10;;;;;;5092525;28;20027;-68
2022/04/09 11:18:03;;;;;;;4.85;1.10;;;9.20;68.20;;;;;;5085081;28;20101;-68
2022/04/09 11:20:37;;;;;;;2.35;0.90;;;9.00;68.50;;;;;;5085088;28;20048;-69
2022/04/09 11:23:08;;;;;;;0.80;0.80;;;8.80;68.70;;;;;;5090551;28;20027;-69
2022/04/09 11:25:34;;;;;;;1.70;0.90;;;8.60;68.90;;;;;;5082575;28;20028;-69
2022/04/09 11:28:17;;;;;;;0.77;0.70;;;8.50;69.00;;;;;;5086928;28;20100;-69
2022/04/09 11:30:54;;;;;;;1.70;0.70;;;8.40;69.30;;;;;;5082914;28;20406;-70
2022/04/09 11:33:20;;;;;;;1.17;0.80;;;8.30;69.50;;;;;;5088628;28;20074;-70
2022/04/09 11:35:45;;;;;;;1.63;0.70;;;8.30;69.60;;;;;;5085481;28;20514;-70
2022/04/09 11:38:11;;;;;;;0.90;0.68;;;8.40;69.40;;;;;;5089580;28;20028;-70
2022/04/09 11:40:46;;;;;;;1.17;0.70;;;8.50;69.30;;;;;;5082311;28;20089;-69
2022/04/09 11:43:13;;;;;;;2.65;1.00;;;8.50;69.00;;;;;;5091065;28;20024;-69
2022/04/09 11:45:39;;;;;;;3.08;0.90;;;8.50;69.00;;;;;;5085293;28;20075;-69
2022/04/09 11:48:05;;;;;;;2.50;0.80;;;8.60;69.00;;;;;;5088984;28;20024;-69
2022/04/09 11:50:39;;;;;;;3.22;1.00;;;8.70;69.00;;;;;;5086572;28;20095;-69
2022/04/09 11:53:15;;;;;;;2.90;1.30;;;8.80;68.80;;;;;;5090558;28;20093;-69
2022/04/09 11:55:41;;;;;;;3.58;1.40;;;9.00;68.70;;;;;;5086282;28;20117;-69
2022/04/09 11:58:08;;;;;;;4.55;1.70;;;9.20;68.50;;;;;;5092508;28;20039;-69
2022/04/09 12:00:42;;;;;;;3.25;1.30;;;9.40;68.50;;;;;;5077454;28;20111;-70
2022/04/09 12:03:08;;;;;;;3.25;1.35;;;9.40;68.20;;;;;;5088906;28;20040;-69
2022/04/09 12:05:36;;;;;;;7.43;2.50;;;9.60;68.10;;;;;;5086990;28;20020;-69
2022/04/09 12:08:04;;;;;;;5.30;1.63;;;9.90;68.10;;;;;;5089286;28;20054;-69
2022/04/09 12:10:30;;;;;;;4.88;1.45;;;10.00;67.30;;;;;;5078274;28;20437;-69
2022/04/09 12:13:07;;;;;;;3.35;1.10;;;10.00;67.00;;;;;;5088068;28;20110;-69
2022/04/09 12:15:34;;;;;;;3.90;1.10;;;9.90;67.20;;;;;;5087263;28;20490;-69
2022/04/09 12:18:06;;;;;;;6.30;1.40;;;9.80;67.70;;;;;;5087295;28;20111;-70
2022/04/09 12:20:37;;;;;;;4.72;1.35;;;9.40;68.00;;;;;;5082251;28;20028;-70
2022/04/09 12:23:05;;;;;;;4.53;1.13;;;8.90;68.90;;;;;;5088035;28;20102;-70
2022/04/09 12:25:35;;;;;;;2.30;0.90;;;8.50;69.50;;;;;;5085228;28;20355;-70
2022/04/09 12:28:02;;;;;;;1.65;0.80;;;8.20;70.10;;;;;;5077249;28;20020;-70
2022/04/09 12:30:42;;;;;;;2.83;0.80;;;7.90;70.70;;;;;;5080094;28;20024;-70
2022/04/09 12:33:10;;;;;;;2.15;0.90;;;7.80;71.10;;;;;;5082997;28;20475;-70
2022/04/09 12:35:35;;;;;;;2.53;0.90;;;7.60;71.10;;;;;;5083625;28;20494;-70
2022/04/09 12:38:01;;;;;;;1.20;0.70;;;7.60;71.40;;;;;;5085180;28;20143;-70
2022/04/09 12:40:29;;;;;;;2.50;0.85;;;7.60;71.70;;;;;;5083946;28;20390;-71
2022/04/09 12:42:55;;;;;;;2.03;0.82;;;7.80;72.10;;;;;;5075813;28;20492;-71
2022/04/09 12:45:23;;;;;;;2.20;0.90;;;8.10;72.10;;;;;;5090132;28;20051;-70
2022/04/09 12:47:54;;;;;;;2.10;1.00;;;8.40;71.90;;;;;;5094791;28;20012;-70
2022/04/09 12:50:21;;;;;;;3.03;1.20;;;8.50;71.60;;;;;;5085748;28;20031;-69
2022/04/09 12:52:47;;;;;;;2.88;1.23;;;8.40;71.60;;;;;;5084544;28;20576;-69